Hauptseite
METAR-TAF:

METAR-TAF

Flughäfen :

Flughafen Touquet-Côte d’Opale

Le Touquet, Frankreich

Breite: 50-30-53N, Länge: 001-37-39E, Höhe: 6 m

Beobachtung

Neuester Wetterbericht von vor 30 Minuten, um 00:00 UTC
Wind 3 kt aus Süd/Südost
Temperatur 4°C
Luftfeuchtigkeit 93%
Luftdruck 1024 hPa
Sichtweite: 3600 m
feuchter Dunst

METAR: LFAT 210000Z AUTO 15003KT 3600 BR NSC 04/03 Q1024

Zeit: 01:30 (00:30 UTC)

Prognose

Neuester Wetterbericht von vor 10 Stunden und 30 Minuten, um 14:00 UTC
Gültige Prognose vom 20 um 15 UTC bis 20 um 24 UTC
Wind 10 kt aus West/Südwest
Sichtweite 10 km oder mehr
keine Wolken unter 1500 m und keine Kumulonimbus oder Gewitterwolken
Übergehend zu
vom 20 um 17 UTC bis 20 um 19 UTC
Wind 5 kt aus Süd
Übergehend zu
vom 20 um 21 UTC bis 20 um 24 UTC
Sichtweite: 2000 m
feuchter Dunst

TAF: LFAT 201400Z 2015/2024 24010KT CAVOK BECMG 2017/2019 17005KT BECMG 2021/2024 2000 BR

Wetterbeobachtungen und Prognosen von mehr als 4000 Flughäfen (METAR und TAF Bericht).

Die verfügbaren Stationen werden durch gelbe und rote Markierungen auf der Karte dargestellt.

Führen Sie die Maus auf sie, um den Namen der Station zu sehen.

Darauf klicken, um die Beobachtung von Wetterbeobachtungen und Prognosen zu sehen.

Um die Karte zu ändern : klicken Sie auf den grünen Tasten mit einem schwarzen Kreuz Zum Vergrößern, auf den grünen Button mit einem Gedankenstrich zu verkleinern, oder auf die grünen Pfeile für benachbarte Karten.


METAR-TAF: